sensor_id;sensor_type;location;lat;lon;timestamp;P1;durP1;ratioP1;P2;durP2;ratioP2
76131;SDS011;64877;50.994;13.650;2023-04-20T00:02:17;5.95;;;3.30;;
76131;SDS011;64877;50.994;13.650;2023-04-20T00:04:42;8.02;;;3.10;;
76131;SDS011;64877;50.994;13.650;2023-04-20T00:07:07;4.57;;;3.08;;
76131;SDS011;64877;50.994;13.650;2023-04-20T00:09:33;4.35;;;2.75;;
76131;SDS011;64877;50.994;13.650;2023-04-20T00:11:58;4.85;;;3.22;;
76131;SDS011;64877;50.994;13.650;2023-04-20T00:14:24;5.63;;;3.35;;
76131;SDS011;64877;50.994;13.650;2023-04-20T00:16:49;4.55;;;3.08;;
76131;SDS011;64877;50.994;13.650;2023-04-20T00:19:15;4.47;;;3.00;;
76131;SDS011;64877;50.994;13.650;2023-04-20T00:21:41;4.95;;;3.08;;
76131;SDS011;64877;50.994;13.650;2023-04-20T00:24:06;4.85;;;2.83;;
76131;SDS011;64877;50.994;13.650;2023-04-20T00:26:32;4.85;;;3.03;;
76131;SDS011;64877;50.994;13.650;2023-04-20T00:28:58;4.55;;;3.08;;
76131;SDS011;64877;50.994;13.650;2023-04-20T00:31:23;4.53;;;2.88;;
76131;SDS011;64877;50.994;13.650;2023-04-20T00:33:48;5.00;;;3.28;;
76131;SDS011;64877;50.994;13.650;2023-04-20T00:36:14;5.75;;;3.03;;
76131;SDS011;64877;50.994;13.650;2023-04-20T00:38:40;6.07;;;3.22;;
76131;SDS011;64877;50.994;13.650;2023-04-20T00:41:05;6.25;;;3.17;;
76131;SDS011;64877;50.994;13.650;2023-04-20T00:43:31;4.93;;;3.17;;
76131;SDS011;64877;50.994;13.650;2023-04-20T00:45:56;5.82;;;3.67;;
76131;SDS011;64877;50.994;13.650;2023-04-20T00:48:22;4.10;;;2.80;;
76131;SDS011;64877;50.994;13.650;2023-04-20T00:50:48;4.45;;;3.08;;
76131;SDS011;64877;50.994;13.650;2023-04-20T00:53:14;5.75;;;3.30;;
76131;SDS011;64877;50.994;13.650;2023-04-20T00:55:41;5.90;;;3.90;;
76131;SDS011;64877;50.994;13.650;2023-04-20T00:58:08;3.88;;;3.13;;
76131;SDS011;64877;50.994;13.650;2023-04-20T01:00:33;5.00;;;3.40;;
76131;SDS011;64877;50.994;13.650;2023-04-20T01:02:59;5.68;;;3.63;;
76131;SDS011;64877;50.994;13.650;2023-04-20T01:05:25;6.07;;;3.58;;
76131;SDS011;64877;50.994;13.650;2023-04-20T01:07:50;6.20;;;3.72;;
76131;SDS011;64877;50.994;13.650;2023-04-20T01:10:16;6.72;;;4.07;;
76131;SDS011;64877;50.994;13.650;2023-04-20T01:12:42;6.32;;;3.90;;
76131;SDS011;64877;50.994;13.650;2023-04-20T01:15:07;5.25;;;3.78;;
76131;SDS011;64877;50.994;13.650;2023-04-20T01:17:35;4.80;;;3.35;;
76131;SDS011;64877;50.994;13.650;2023-04-20T01:20:05;5.32;;;2.90;;
76131;SDS011;64877;50.994;13.650;2023-04-20T01:22:46;4.22;;;2.63;;
76131;SDS011;64877;50.994;13.650;2023-04-20T01:25:13;3.80;;;2.50;;
76131;SDS011;64877;50.994;13.650;2023-04-20T01:27:39;4.75;;;2.75;;
76131;SDS011;64877;50.994;13.650;2023-04-20T01:30:05;4.68;;;2.95;;
76131;SDS011;64877;50.994;13.650;2023-04-20T01:32:31;4.40;;;2.90;;
76131;SDS011;64877;50.994;13.650;2023-04-20T01:34:56;3.90;;;2.63;;
76131;SDS011;64877;50.994;13.650;2023-04-20T01:37:22;3.80;;;2.38;;
76131;SDS011;64877;50.994;13.650;2023-04-20T01:39:47;4.20;;;2.40;;
76131;SDS011;64877;50.994;13.650;2023-04-20T01:42:12;4.03;;;2.35;;
76131;SDS011;64877;50.994;13.650;2023-04-20T01:44:38;3.13;;;2.30;;
76131;SDS011;64877;50.994;13.650;2023-04-20T01:47:03;3.67;;;2.15;;
76131;SDS011;64877;50.994;13.650;2023-04-20T01:49:29;3.63;;;2.40;;
76131;SDS011;64877;50.994;13.650;2023-04-20T01:51:54;3.03;;;2.10;;
76131;SDS011;64877;50.994;13.650;2023-04-20T01:54:20;3.88;;;2.30;;
76131;SDS011;64877;50.994;13.650;2023-04-20T01:56:45;2.47;;;1.90;;
76131;SDS011;64877;50.994;13.650;2023-04-20T01:59:10;2.80;;;2.08;;
76131;SDS011;64877;50.994;13.650;2023-04-20T02:01:36;3.92;;;2.58;;
76131;SDS011;64877;50.994;13.650;2023-04-20T02:04:01;4.68;;;3.65;;
76131;SDS011;64877;50.994;13.650;2023-04-20T02:06:26;5.95;;;4.10;;
76131;SDS011;64877;50.994;13.650;2023-04-20T02:08:52;7.13;;;5.05;;
76131;SDS011;64877;50.994;13.650;2023-04-20T02:11:17;7.15;;;5.35;;
76131;SDS011;64877;50.994;13.650;2023-04-20T02:13:43;6.93;;;5.20;;
76131;SDS011;64877;50.994;13.650;2023-04-20T02:16:08;7.10;;;4.90;;
76131;SDS011;64877;50.994;13.650;2023-04-20T02:18:33;7.00;;;5.68;;
76131;SDS011;64877;50.994;13.650;2023-04-20T02:20:59;7.97;;;5.55;;
76131;SDS011;64877;50.994;13.650;2023-04-20T02:23:25;8.55;;;5.90;;
76131;SDS011;64877;50.994;13.650;2023-04-20T02:25:50;7.10;;;5.22;;
76131;SDS011;64877;50.994;13.650;2023-04-20T02:28:16;7.50;;;5.47;;
76131;SDS011;64877;50.994;13.650;2023-04-20T02:30:41;8.23;;;5.80;;
76131;SDS011;64877;50.994;13.650;2023-04-20T02:33:07;7.55;;;5.97;;
76131;SDS011;64877;50.994;13.650;2023-04-20T02:35:32;10.95;;;5.40;;
76131;SDS011;64877;50.994;13.650;2023-04-20T02:37:58;7.05;;;5.35;;
76131;SDS011;64877;50.994;13.650;2023-04-20T02:40:23;7.57;;;4.93;;
76131;SDS011;64877;50.994;13.650;2023-04-20T02:42:49;7.65;;;5.28;;
76131;SDS011;64877;50.994;13.650;2023-04-20T02:45:14;9.55;;;5.93;;
76131;SDS011;64877;50.994;13.650;2023-04-20T02:47:39;7.30;;;5.20;;
76131;SDS011;64877;50.994;13.650;2023-04-20T02:50:05;7.88;;;5.47;;
76131;SDS011;64877;50.994;13.650;2023-04-20T02:52:31;6.55;;;4.97;;
76131;SDS011;64877;50.994;13.650;2023-04-20T02:54:58;13.95;;;9.00;;
76131;SDS011;64877;50.994;13.650;2023-04-20T02:57:23;11.52;;;7.38;;
76131;SDS011;64877;50.994;13.650;2023-04-20T02:59:49;8.20;;;5.97;;
76131;SDS011;64877;50.994;13.650;2023-04-20T03:02:15;9.02;;;6.47;;
76131;SDS011;64877;50.994;13.650;2023-04-20T03:04:40;8.35;;;6.03;;
76131;SDS011;64877;50.994;13.650;2023-04-20T03:07:06;7.50;;;5.88;;
76131;SDS011;64877;50.994;13.650;2023-04-20T03:09:33;6.60;;;5.10;;
76131;SDS011;64877;50.994;13.650;2023-04-20T03:12:00;7.63;;;5.25;;
76131;SDS011;64877;50.994;13.650;2023-04-20T03:14:26;9.75;;;6.13;;
76131;SDS011;64877;50.994;13.650;2023-04-20T03:16:52;10.68;;;6.35;;
76131;SDS011;64877;50.994;13.650;2023-04-20T03:19:17;7.70;;;5.45;;
76131;SDS011;64877;50.994;13.650;2023-04-20T03:21:43;7.15;;;5.32;;
76131;SDS011;64877;50.994;13.650;2023-04-20T03:24:08;7.60;;;5.25;;
76131;SDS011;64877;50.994;13.650;2023-04-20T03:26:34;5.95;;;4.32;;
76131;SDS011;64877;50.994;13.650;2023-04-20T03:29:00;7.00;;;4.97;;
76131;SDS011;64877;50.994;13.650;2023-04-20T03:31:26;5.57;;;4.38;;
76131;SDS011;64877;50.994;13.650;2023-04-20T03:33:51;5.63;;;3.85;;
76131;SDS011;64877;50.994;13.650;2023-04-20T03:36:17;7.47;;;4.78;;
76131;SDS011;64877;50.994;13.650;2023-04-20T03:38:43;6.10;;;4.22;;
76131;SDS011;64877;50.994;13.650;2023-04-20T03:41:08;4.72;;;3.80;;
76131;SDS011;64877;50.994;13.650;2023-04-20T03:43:33;7.60;;;3.88;;
76131;SDS011;64877;50.994;13.650;2023-04-20T03:45:59;5.57;;;4.40;;
76131;SDS011;64877;50.994;13.650;2023-04-20T03:48:24;7.68;;;4.82;;
76131;SDS011;64877;50.994;13.650;2023-04-20T03:50:50;6.13;;;4.40;;
76131;SDS011;64877;50.994;13.650;2023-04-20T03:53:15;6.68;;;4.60;;
76131;SDS011;64877;50.994;13.650;2023-04-20T03:55:40;8.23;;;4.88;;
76131;SDS011;64877;50.994;13.650;2023-04-20T03:58:06;5.68;;;4.15;;
76131;SDS011;64877;50.994;13.650;2023-04-20T04:00:31;7.07;;;4.95;;
76131;SDS011;64877;50.994;13.650;2023-04-20T04:02:57;6.78;;;5.20;;
76131;SDS011;64877;50.994;13.650;2023-04-20T04:05:23;6.70;;;4.63;;
76131;SDS011;64877;50.994;13.650;2023-04-20T04:07:49;4.75;;;3.55;;
76131;SDS011;64877;50.994;13.650;2023-04-20T04:10:14;6.72;;;4.70;;
76131;SDS011;64877;50.994;13.650;2023-04-20T04:12:41;6.95;;;4.82;;
76131;SDS011;64877;50.994;13.650;2023-04-20T04:15:07;8.07;;;5.55;;
76131;SDS011;64877;50.994;13.650;2023-04-20T04:17:33;10.60;;;5.35;;
76131;SDS011;64877;50.994;13.650;2023-04-20T04:19:58;7.78;;;5.32;;
76131;SDS011;64877;50.994;13.650;2023-04-20T04:22:23;7.70;;;5.28;;
76131;SDS011;64877;50.994;13.650;2023-04-20T04:24:49;7.50;;;5.13;;
76131;SDS011;64877;50.994;13.650;2023-04-20T04:27:14;7.60;;;5.50;;
76131;SDS011;64877;50.994;13.650;2023-04-20T04:29:40;7.20;;;5.32;;
76131;SDS011;64877;50.994;13.650;2023-04-20T04:32:05;8.07;;;5.18;;
76131;SDS011;64877;50.994;13.650;2023-04-20T04:34:32;6.70;;;5.18;;
76131;SDS011;64877;50.994;13.650;2023-04-20T04:36:58;8.50;;;5.95;;
76131;SDS011;64877;50.994;13.650;2023-04-20T04:39:25;9.73;;;6.28;;
76131;SDS011;64877;50.994;13.650;2023-04-20T04:41:52;9.90;;;6.00;;
76131;SDS011;64877;50.994;13.650;2023-04-20T04:44:17;8.65;;;5.93;;
76131;SDS011;64877;50.994;13.650;2023-04-20T04:46:43;8.02;;;5.50;;
76131;SDS011;64877;50.994;13.650;2023-04-20T04:49:09;8.40;;;5.72;;
76131;SDS011;64877;50.994;13.650;2023-04-20T04:51:35;9.00;;;6.35;;
76131;SDS011;64877;50.994;13.650;2023-04-20T04:54:01;8.75;;;5.82;;
76131;SDS011;64877;50.994;13.650;2023-04-20T04:56:26;9.73;;;6.13;;
76131;SDS011;64877;50.994;13.650;2023-04-20T04:58:52;8.80;;;5.63;;
76131;SDS011;64877;50.994;13.650;2023-04-20T05:01:18;8.77;;;6.43;;
76131;SDS011;64877;50.994;13.650;2023-04-20T05:03:43;7.47;;;5.80;;
76131;SDS011;64877;50.994;13.650;2023-04-20T05:06:09;9.07;;;6.50;;
76131;SDS011;64877;50.994;13.650;2023-04-20T05:08:34;10.05;;;6.57;;
76131;SDS011;64877;50.994;13.650;2023-04-20T05:10:59;8.48;;;5.63;;
76131;SDS011;64877;50.994;13.650;2023-04-20T05:13:25;8.10;;;5.63;;
76131;SDS011;64877;50.994;13.650;2023-04-20T05:15:50;8.65;;;6.45;;
76131;SDS011;64877;50.994;13.650;2023-04-20T05:18:15;9.80;;;5.85;;
76131;SDS011;64877;50.994;13.650;2023-04-20T05:20:41;10.77;;;6.88;;
76131;SDS011;64877;50.994;13.650;2023-04-20T05:23:06;12.20;;;7.25;;
76131;SDS011;64877;50.994;13.650;2023-04-20T05:25:32;13.75;;;6.90;;
76131;SDS011;64877;50.994;13.650;2023-04-20T05:27:57;9.82;;;6.85;;
76131;SDS011;64877;50.994;13.650;2023-04-20T05:30:23;11.38;;;7.15;;
76131;SDS011;64877;50.994;13.650;2023-04-20T05:32:48;11.07;;;7.10;;
76131;SDS011;64877;50.994;13.650;2023-04-20T05:35:14;12.70;;;8.02;;
76131;SDS011;64877;50.994;13.650;2023-04-20T05:37:40;11.30;;;6.65;;
76131;SDS011;64877;50.994;13.650;2023-04-20T05:40:05;11.75;;;7.25;;
76131;SDS011;64877;50.994;13.650;2023-04-20T05:42:31;11.90;;;7.15;;
76131;SDS011;64877;50.994;13.650;2023-04-20T05:44:57;12.18;;;6.85;;
76131;SDS011;64877;50.994;13.650;2023-04-20T05:47:22;12.85;;;6.93;;
76131;SDS011;64877;50.994;13.650;2023-04-20T05:49:47;10.93;;;7.22;;
76131;SDS011;64877;50.994;13.650;2023-04-20T05:52:13;12.63;;;7.72;;
76131;SDS011;64877;50.994;13.650;2023-04-20T05:54:38;11.77;;;7.75;;
76131;SDS011;64877;50.994;13.650;2023-04-20T05:57:04;12.52;;;7.55;;
76131;SDS011;64877;50.994;13.650;2023-04-20T05:59:29;13.50;;;7.93;;
76131;SDS011;64877;50.994;13.650;2023-04-20T06:01:55;11.43;;;7.32;;
76131;SDS011;64877;50.994;13.650;2023-04-20T06:04:21;14.98;;;8.32;;
76131;SDS011;64877;50.994;13.650;2023-04-20T06:06:46;12.40;;;8.05;;
76131;SDS011;64877;50.994;13.650;2023-04-20T06:09:12;12.52;;;7.32;;
76131;SDS011;64877;50.994;13.650;2023-04-20T06:11:38;12.77;;;7.90;;
76131;SDS011;64877;50.994;13.650;2023-04-20T06:14:03;12.50;;;7.57;;
76131;SDS011;64877;50.994;13.650;2023-04-20T06:16:29;12.73;;;8.40;;
76131;SDS011;64877;50.994;13.650;2023-04-20T06:18:54;11.88;;;7.85;;
76131;SDS011;64877;50.994;13.650;2023-04-20T06:21:20;11.77;;;7.85;;
76131;SDS011;64877;50.994;13.650;2023-04-20T06:23:45;12.85;;;7.85;;
76131;SDS011;64877;50.994;13.650;2023-04-20T06:26:11;13.07;;;8.02;;
76131;SDS011;64877;50.994;13.650;2023-04-20T06:28:36;13.25;;;8.00;;
76131;SDS011;64877;50.994;13.650;2023-04-20T06:31:02;12.65;;;7.97;;
76131;SDS011;64877;50.994;13.650;2023-04-20T06:33:28;13.90;;;8.80;;
76131;SDS011;64877;50.994;13.650;2023-04-20T06:35:53;15.07;;;8.88;;
76131;SDS011;64877;50.994;13.650;2023-04-20T06:38:20;13.57;;;8.23;;
76131;SDS011;64877;50.994;13.650;2023-04-20T06:40:51;18.88;;;9.15;;
76131;SDS011;64877;50.994;13.650;2023-04-20T06:43:17;13.43;;;7.40;;
76131;SDS011;64877;50.994;13.650;2023-04-20T06:45:42;14.75;;;7.80;;
76131;SDS011;64877;50.994;13.650;2023-04-20T06:48:08;13.73;;;8.43;;
76131;SDS011;64877;50.994;13.650;2023-04-20T06:50:33;13.40;;;8.23;;
76131;SDS011;64877;50.994;13.650;2023-04-20T06:53:00;14.35;;;8.75;;
76131;SDS011;64877;50.994;13.650;2023-04-20T06:55:27;13.30;;;8.38;;
76131;SDS011;64877;50.994;13.650;2023-04-20T06:57:52;12.75;;;8.18;;
76131;SDS011;64877;50.994;13.650;2023-04-20T07:00:17;14.23;;;8.48;;
76131;SDS011;64877;50.994;13.650;2023-04-20T07:05:09;13.73;;;8.52;;
76131;SDS011;64877;50.994;13.650;2023-04-20T07:07:35;15.15;;;9.10;;
76131;SDS011;64877;50.994;13.650;2023-04-20T07:10:01;15.38;;;8.35;;
76131;SDS011;64877;50.994;13.650;2023-04-20T07:12:26;15.32;;;8.68;;
76131;SDS011;64877;50.994;13.650;2023-04-20T07:14:52;15.23;;;8.80;;
76131;SDS011;64877;50.994;13.650;2023-04-20T07:17:18;14.80;;;8.95;;
76131;SDS011;64877;50.994;13.650;2023-04-20T07:19:43;13.50;;;8.60;;
76131;SDS011;64877;50.994;13.650;2023-04-20T07:22:09;15.90;;;10.07;;
76131;SDS011;64877;50.994;13.650;2023-04-20T07:24:34;17.00;;;10.48;;
76131;SDS011;64877;50.994;13.650;2023-04-20T07:26:59;17.15;;;9.40;;
76131;SDS011;64877;50.994;13.650;2023-04-20T07:29:25;16.83;;;9.85;;
76131;SDS011;64877;50.994;13.650;2023-04-20T07:31:50;16.48;;;9.88;;
76131;SDS011;64877;50.994;13.650;2023-04-20T07:34:16;15.13;;;9.13;;
76131;SDS011;64877;50.994;13.650;2023-04-20T07:36:41;18.35;;;10.18;;
76131;SDS011;64877;50.994;13.650;2023-04-20T07:39:06;15.10;;;9.15;;
76131;SDS011;64877;50.994;13.650;2023-04-20T07:41:32;14.70;;;9.75;;
76131;SDS011;64877;50.994;13.650;2023-04-20T07:43:57;14.73;;;10.30;;
76131;SDS011;64877;50.994;13.650;2023-04-20T07:46:23;15.60;;;9.65;;
76131;SDS011;64877;50.994;13.650;2023-04-20T07:48:48;16.00;;;10.23;;
76131;SDS011;64877;50.994;13.650;2023-04-20T07:51:13;14.90;;;9.48;;
76131;SDS011;64877;50.994;13.650;2023-04-20T07:53:39;15.75;;;9.60;;
76131;SDS011;64877;50.994;13.650;2023-04-20T07:56:05;15.00;;;8.93;;
76131;SDS011;64877;50.994;13.650;2023-04-20T07:58:31;14.82;;;9.18;;
76131;SDS011;64877;50.994;13.650;2023-04-20T08:00:56;14.88;;;9.90;;
76131;SDS011;64877;50.994;13.650;2023-04-20T08:03:22;16.75;;;9.88;;
76131;SDS011;64877;50.994;13.650;2023-04-20T08:05:47;16.55;;;10.57;;
76131;SDS011;64877;50.994;13.650;2023-04-20T08:08:12;15.93;;;9.38;;
76131;SDS011;64877;50.994;13.650;2023-04-20T08:10:38;16.20;;;10.05;;
76131;SDS011;64877;50.994;13.650;2023-04-20T08:13:03;16.52;;;10.05;;
76131;SDS011;64877;50.994;13.650;2023-04-20T08:15:29;16.50;;;9.80;;
76131;SDS011;64877;50.994;13.650;2023-04-20T08:17:54;15.07;;;10.43;;
76131;SDS011;64877;50.994;13.650;2023-04-20T08:20:19;18.85;;;11.05;;
76131;SDS011;64877;50.994;13.650;2023-04-20T08:22:45;15.90;;;10.48;;
76131;SDS011;64877;50.994;13.650;2023-04-20T08:25:10;18.65;;;10.95;;
76131;SDS011;64877;50.994;13.650;2023-04-20T08:27:36;14.93;;;9.00;;
76131;SDS011;64877;50.994;13.650;2023-04-20T08:30:01;16.52;;;10.43;;
76131;SDS011;64877;50.994;13.650;2023-04-20T08:32:28;15.63;;;9.82;;
76131;SDS011;64877;50.994;13.650;2023-04-20T08:34:54;16.77;;;9.95;;
76131;SDS011;64877;50.994;13.650;2023-04-20T08:37:19;16.65;;;9.93;;
76131;SDS011;64877;50.994;13.650;2023-04-20T08:39:45;16.40;;;10.02;;
76131;SDS011;64877;50.994;13.650;2023-04-20T08:42:10;19.33;;;12.90;;
76131;SDS011;64877;50.994;13.650;2023-04-20T08:44:36;28.85;;;16.83;;
76131;SDS011;64877;50.994;13.650;2023-04-20T08:47:02;30.85;;;17.55;;
76131;SDS011;64877;50.994;13.650;2023-04-20T08:49:28;17.70;;;11.05;;
76131;SDS011;64877;50.994;13.650;2023-04-20T08:51:54;16.10;;;10.88;;
76131;SDS011;64877;50.994;13.650;2023-04-20T08:54:20;17.85;;;10.90;;
76131;SDS011;64877;50.994;13.650;2023-04-20T08:56:45;16.77;;;10.02;;
76131;SDS011;64877;50.994;13.650;2023-04-20T08:59:12;16.23;;;10.45;;
76131;SDS011;64877;50.994;13.650;2023-04-20T09:01:38;18.20;;;10.35;;
76131;SDS011;64877;50.994;13.650;2023-04-20T09:04:24;18.30;;;10.27;;
76131;SDS011;64877;50.994;13.650;2023-04-20T09:06:51;18.02;;;10.73;;
76131;SDS011;64877;50.994;13.650;2023-04-20T09:09:19;17.05;;;10.25;;
76131;SDS011;64877;50.994;13.650;2023-04-20T09:11:46;16.67;;;10.40;;
76131;SDS011;64877;50.994;13.650;2023-04-20T09:14:14;18.27;;;10.90;;
76131;SDS011;64877;50.994;13.650;2023-04-20T09:16:53;15.85;;;10.35;;
76131;SDS011;64877;50.994;13.650;2023-04-20T09:19:24;17.63;;;11.80;;
76131;SDS011;64877;50.994;13.650;2023-04-20T09:21:51;19.35;;;11.93;;
76131;SDS011;64877;50.994;13.650;2023-04-20T09:26:45;17.70;;;10.82;;
76131;SDS011;64877;50.994;13.650;2023-04-20T09:29:20;22.10;;;12.13;;
76131;SDS011;64877;50.994;13.650;2023-04-20T09:31:48;18.92;;;11.25;;
76131;SDS011;64877;50.994;13.650;2023-04-20T09:34:14;17.27;;;10.95;;
76131;SDS011;64877;50.994;13.650;2023-04-20T09:39:08;18.52;;;11.85;;
76131;SDS011;64877;50.994;13.650;2023-04-20T09:41:38;18.95;;;11.40;;
76131;SDS011;64877;50.994;13.650;2023-04-20T09:44:05;20.52;;;11.38;;
76131;SDS011;64877;50.994;13.650;2023-04-20T09:46:32;17.30;;;11.20;;
76131;SDS011;64877;50.994;13.650;2023-04-20T09:49:02;18.35;;;12.00;;
76131;SDS011;64877;50.994;13.650;2023-04-20T09:53:57;22.77;;;12.77;;
76131;SDS011;64877;50.994;13.650;2023-04-20T09:56:25;20.33;;;12.43;;
76131;SDS011;64877;50.994;13.650;2023-04-20T09:58:52;19.30;;;11.98;;
76131;SDS011;64877;50.994;13.650;2023-04-20T10:01:18;19.58;;;11.88;;
76131;SDS011;64877;50.994;13.650;2023-04-20T10:03:44;19.58;;;12.63;;
76131;SDS011;64877;50.994;13.650;2023-04-20T10:06:17;20.17;;;12.50;;
76131;SDS011;64877;50.994;13.650;2023-04-20T10:08:50;18.35;;;11.85;;
76131;SDS011;64877;50.994;13.650;2023-04-20T10:14:12;21.35;;;12.85;;
76131;SDS011;64877;50.994;13.650;2023-04-20T10:16:58;20.98;;;12.15;;
76131;SDS011;64877;50.994;13.650;2023-04-20T10:19:35;22.27;;;12.75;;
76131;SDS011;64877;50.994;13.650;2023-04-20T10:22:08;16.45;;;11.05;;
76131;SDS011;64877;50.994;13.650;2023-04-20T10:24:34;17.67;;;11.70;;
76131;SDS011;64877;50.994;13.650;2023-04-20T10:27:02;19.52;;;11.90;;
76131;SDS011;64877;50.994;13.650;2023-04-20T10:29:29;18.48;;;11.77;;
76131;SDS011;64877;50.994;13.650;2023-04-20T10:31:55;16.73;;;10.73;;
76131;SDS011;64877;50.994;13.650;2023-04-20T10:34:30;18.95;;;11.98;;
76131;SDS011;64877;50.994;13.650;2023-04-20T10:37:06;18.10;;;12.48;;
76131;SDS011;64877;50.994;13.650;2023-04-20T10:39:33;18.20;;;11.73;;
76131;SDS011;64877;50.994;13.650;2023-04-20T10:41:59;20.70;;;11.80;;
76131;SDS011;64877;50.994;13.650;2023-04-20T10:44:27;19.83;;;12.77;;
76131;SDS011;64877;50.994;13.650;2023-04-20T10:46:53;18.25;;;12.27;;
76131;SDS011;64877;50.994;13.650;2023-04-20T10:49:24;20.17;;;12.10;;
76131;SDS011;64877;50.994;13.650;2023-04-20T10:51:50;19.13;;;11.65;;
76131;SDS011;64877;50.994;13.650;2023-04-20T10:54:17;18.20;;;11.60;;
76131;SDS011;64877;50.994;13.650;2023-04-20T10:56:44;18.08;;;11.20;;
76131;SDS011;64877;50.994;13.650;2023-04-20T10:59:13;19.65;;;12.48;;
76131;SDS011;64877;50.994;13.650;2023-04-20T11:01:40;21.10;;;12.35;;
76131;SDS011;64877;50.994;13.650;2023-04-20T11:04:07;20.52;;;13.25;;
76131;SDS011;64877;50.994;13.650;2023-04-20T11:06:36;20.30;;;12.15;;
76131;SDS011;64877;50.994;13.650;2023-04-20T11:09:21;21.38;;;12.73;;
76131;SDS011;64877;50.994;13.650;2023-04-20T11:11:59;22.10;;;13.05;;
76131;SDS011;64877;50.994;13.650;2023-04-20T11:14:29;20.33;;;11.85;;
76131;SDS011;64877;50.994;13.650;2023-04-20T11:16:58;21.00;;;12.15;;
76131;SDS011;64877;50.994;13.650;2023-04-20T11:19:25;19.98;;;12.30;;
76131;SDS011;64877;50.994;13.650;2023-04-20T11:22:01;21.48;;;12.70;;
76131;SDS011;64877;50.994;13.650;2023-04-20T11:24:29;21.35;;;13.05;;
76131;SDS011;64877;50.994;13.650;2023-04-20T11:26:55;21.67;;;13.05;;
76131;SDS011;64877;50.994;13.650;2023-04-20T11:29:27;20.38;;;12.40;;
76131;SDS011;64877;50.994;13.650;2023-04-20T11:31:54;21.52;;;12.13;;
76131;SDS011;64877;50.994;13.650;2023-04-20T11:34:20;22.75;;;13.82;;
76131;SDS011;64877;50.994;13.650;2023-04-20T11:36:46;24.48;;;14.75;;
76131;SDS011;64877;50.994;13.650;2023-04-20T11:39:14;22.63;;;13.65;;
76131;SDS011;64877;50.994;13.650;2023-04-20T11:44:23;20.02;;;12.30;;
76131;SDS011;64877;50.994;13.650;2023-04-20T11:46:50;22.50;;;13.32;;
76131;SDS011;64877;50.994;13.650;2023-04-20T11:49:18;23.80;;;13.75;;
76131;SDS011;64877;50.994;13.650;2023-04-20T11:51:46;24.38;;;14.70;;
76131;SDS011;64877;50.994;13.650;2023-04-20T11:54:12;22.83;;;13.77;;
76131;SDS011;64877;50.994;13.650;2023-04-20T11:56:38;22.67;;;13.07;;
76131;SDS011;64877;50.994;13.650;2023-04-20T11:59:06;24.73;;;14.57;;
76131;SDS011;64877;50.994;13.650;2023-04-20T12:01:32;25.80;;;14.73;;
76131;SDS011;64877;50.994;13.650;2023-04-20T12:03:58;23.17;;;14.02;;
76131;SDS011;64877;50.994;13.650;2023-04-20T12:06:25;22.00;;;13.07;;
76131;SDS011;64877;50.994;13.650;2023-04-20T12:08:52;24.02;;;14.30;;
76131;SDS011;64877;50.994;13.650;2023-04-20T12:11:19;25.55;;;14.25;;
76131;SDS011;64877;50.994;13.650;2023-04-20T12:13:45;24.48;;;14.00;;
76131;SDS011;64877;50.994;13.650;2023-04-20T12:16:10;24.63;;;14.73;;
76131;SDS011;64877;50.994;13.650;2023-04-20T12:18:35;23.15;;;14.77;;
76131;SDS011;64877;50.994;13.650;2023-04-20T12:21:01;26.10;;;15.07;;
76131;SDS011;64877;50.994;13.650;2023-04-20T12:23:27;24.48;;;14.23;;
76131;SDS011;64877;50.994;13.650;2023-04-20T12:25:52;23.88;;;13.93;;
76131;SDS011;64877;50.994;13.650;2023-04-20T12:28:18;21.30;;;13.68;;
76131;SDS011;64877;50.994;13.650;2023-04-20T12:30:43;24.63;;;14.13;;
76131;SDS011;64877;50.994;13.650;2023-04-20T12:33:09;23.05;;;14.60;;
76131;SDS011;64877;50.994;13.650;2023-04-20T12:35:34;23.13;;;14.38;;
76131;SDS011;64877;50.994;13.650;2023-04-20T12:38:00;24.63;;;15.20;;
76131;SDS011;64877;50.994;13.650;2023-04-20T12:40:25;24.63;;;15.27;;
76131;SDS011;64877;50.994;13.650;2023-04-20T12:42:50;24.83;;;14.52;;
76131;SDS011;64877;50.994;13.650;2023-04-20T12:45:16;23.90;;;14.68;;
76131;SDS011;64877;50.994;13.650;2023-04-20T12:47:41;21.98;;;13.63;;
76131;SDS011;64877;50.994;13.650;2023-04-20T12:50:07;25.33;;;14.80;;
76131;SDS011;64877;50.994;13.650;2023-04-20T12:52:33;22.77;;;14.70;;
76131;SDS011;64877;50.994;13.650;2023-04-20T12:54:58;24.42;;;14.63;;
76131;SDS011;64877;50.994;13.650;2023-04-20T12:57:25;21.25;;;14.55;;
76131;SDS011;64877;50.994;13.650;2023-04-20T12:59:50;24.35;;;14.45;;
76131;SDS011;64877;50.994;13.650;2023-04-20T13:02:16;23.83;;;15.10;;
76131;SDS011;64877;50.994;13.650;2023-04-20T13:04:42;24.67;;;16.02;;
76131;SDS011;64877;50.994;13.650;2023-04-20T13:07:07;23.45;;;14.85;;
76131;SDS011;64877;50.994;13.650;2023-04-20T13:09:33;25.65;;;16.42;;
76131;SDS011;64877;50.994;13.650;2023-04-20T13:11:58;24.90;;;15.15;;
76131;SDS011;64877;50.994;13.650;2023-04-20T13:14:24;27.13;;;15.25;;
76131;SDS011;64877;50.994;13.650;2023-04-20T13:16:50;25.65;;;15.77;;
76131;SDS011;64877;50.994;13.650;2023-04-20T13:19:16;23.80;;;15.07;;
76131;SDS011;64877;50.994;13.650;2023-04-20T13:21:41;25.33;;;16.13;;
76131;SDS011;64877;50.994;13.650;2023-04-20T13:24:07;26.92;;;15.68;;
76131;SDS011;64877;50.994;13.650;2023-04-20T13:26:32;26.80;;;16.80;;
76131;SDS011;64877;50.994;13.650;2023-04-20T13:28:58;26.55;;;16.50;;
76131;SDS011;64877;50.994;13.650;2023-04-20T13:31:23;26.13;;;16.45;;
76131;SDS011;64877;50.994;13.650;2023-04-20T13:33:49;27.65;;;17.80;;
76131;SDS011;64877;50.994;13.650;2023-04-20T13:36:22;22.63;;;15.88;;
76131;SDS011;64877;50.994;13.650;2023-04-20T13:38:48;25.90;;;16.70;;
76131;SDS011;64877;50.994;13.650;2023-04-20T13:41:15;29.05;;;16.70;;
76131;SDS011;64877;50.994;13.650;2023-04-20T13:43:44;24.17;;;15.98;;
76131;SDS011;64877;50.994;13.650;2023-04-20T13:46:09;24.33;;;16.83;;
76131;SDS011;64877;50.994;13.650;2023-04-20T13:48:35;24.17;;;15.15;;
76131;SDS011;64877;50.994;13.650;2023-04-20T13:51:01;27.05;;;15.55;;
76131;SDS011;64877;50.994;13.650;2023-04-20T13:53:26;20.85;;;13.68;;
76131;SDS011;64877;50.994;13.650;2023-04-20T13:55:51;21.13;;;13.85;;
76131;SDS011;64877;50.994;13.650;2023-04-20T13:58:17;22.63;;;14.70;;
76131;SDS011;64877;50.994;13.650;2023-04-20T14:00:42;21.95;;;13.38;;
76131;SDS011;64877;50.994;13.650;2023-04-20T14:03:08;23.95;;;14.90;;
76131;SDS011;64877;50.994;13.650;2023-04-20T14:05:34;20.73;;;13.50;;
76131;SDS011;64877;50.994;13.650;2023-04-20T14:08:00;22.95;;;13.13;;
76131;SDS011;64877;50.994;13.650;2023-04-20T14:10:27;22.70;;;13.73;;
76131;SDS011;64877;50.994;13.650;2023-04-20T14:12:52;19.55;;;12.55;;
76131;SDS011;64877;50.994;13.650;2023-04-20T14:15:18;22.92;;;13.43;;
76131;SDS011;64877;50.994;13.650;2023-04-20T14:17:43;22.30;;;12.88;;
76131;SDS011;64877;50.994;13.650;2023-04-20T14:20:09;22.30;;;13.32;;
76131;SDS011;64877;50.994;13.650;2023-04-20T14:22:35;20.90;;;13.05;;
76131;SDS011;64877;50.994;13.650;2023-04-20T14:25:04;20.90;;;13.50;;
76131;SDS011;64877;50.994;13.650;2023-04-20T14:27:30;20.33;;;13.73;;
76131;SDS011;64877;50.994;13.650;2023-04-20T14:29:55;21.52;;;11.82;;
76131;SDS011;64877;50.994;13.650;2023-04-20T14:32:21;23.08;;;13.55;;